Mahone Bay, Canada
Current Conditions -  °F | °C
As of 10:00 PM on Thursday 18 Dec 2014 (Local Time) from CYZX Reporting Station
Snow Showers Snow Showers  
Wind Chill: 20°   Ceiling: 2300
Heat Index: 32°   Visibility: 2mi
Dew Point: 32°   Wind: 18mph
Humidity: 100%   Direction: 290°WNW
Pressure: 29.44"   Gusts: 24mph
Location:  44.43°N, 64.37°W
Report Text: CYZX 190200Z 29016G21KT 2SM -SHSN OVC023 00/00 A2944 RMK SC8 WNDY HILL 31018G26KT /S01/ SLP972
Loading
Personal Weather Stations






























Interactive Weather Map New forecast layout! Learn more

10-Day Weather Forecast

Advertisements
Track Severe Weather on mobile